Time;durP1;ratioP1;P1;durP2;ratioP2;P2;SDS_P1;SDS_P2;PMS_P1;PMS_P2;Temp;Humidity;BMP_temperature;BMP_pressure;BME280_temperature;BME280_humidity;BME280_pressure;Samples;Min_cycle;Max_cycle;Signal;HPM_P1;HPM_P2
2024/04/10 00:01:48;;;;;;;0.50;0.47;;;9.20;99.90;;;;;;5456141;26;20211;-85
2024/04/10 00:04:14;;;;;;;8.98;1.35;;;9.20;99.90;;;;;;5456239;26;20433;-84
2024/04/10 00:06:43;;;;;;;0.50;0.50;;;9.20;99.90;;;;;;5456367;26;20718;-84
2024/04/10 00:09:09;;;;;;;1.17;1.17;;;9.10;99.90;;;;;;5456561;26;20499;-85
2024/04/10 00:11:37;;;;;;;0.50;0.40;;;9.10;99.90;;;;;;5456000;26;20555;-85
2024/04/10 00:14:03;;;;;;;0.50;0.40;;;9.10;99.90;;;;;;5456303;26;20220;-85
2024/04/10 00:16:31;;;;;;;0.50;0.40;;;9.00;99.90;;;;;;5454908;26;20216;-85
2024/04/10 00:19:01;;;;;;;0.50;0.40;;;9.00;99.90;;;;;;5456128;26;20228;-85
2024/04/10 00:21:32;;;;;;;0.50;0.40;;;9.00;99.90;;;;;;5456019;26;20263;-85
2024/04/10 00:23:58;;;;;;;0.50;0.40;;;9.00;99.90;;;;;;5456096;26;20586;-85
2024/04/10 00:26:27;;;;;;;0.50;0.40;;;9.00;99.90;;;;;;5455463;26;20212;-85
2024/04/10 00:28:53;;;;;;;2.15;0.90;;;9.00;99.90;;;;;;5455866;26;20266;-85
2024/04/10 00:31:21;;;;;;;0.70;0.60;;;8.90;99.90;;;;;;5455821;26;20275;-85
2024/04/10 00:33:47;;;;;;;0.50;0.40;;;8.90;99.90;;;;;;5455941;26;20260;-85
2024/04/10 00:36:18;;;;;;;0.50;0.40;;;8.90;99.90;;;;;;5455536;26;20320;-85
2024/04/10 00:38:44;;;;;;;0.50;0.40;;;8.90;99.90;;;;;;5455223;26;20326;-83
2024/04/10 00:41:12;;;;;;;0.50;0.40;;;8.80;99.90;;;;;;5454276;26;20227;-84
2024/04/10 00:43:39;;;;;;;0.60;0.60;;;8.80;99.90;;;;;;5455361;26;20582;-84
2024/04/10 00:46:14;;;;;;;0.50;0.50;;;8.80;99.90;;;;;;5453342;26;20594;-85
2024/04/10 00:48:41;;;;;;;0.50;0.40;;;8.80;99.90;;;;;;5455243;26;20223;-85
2024/04/10 00:51:10;;;;;;;0.50;0.50;;;8.90;99.90;;;;;;5455989;26;20208;-83
2024/04/10 00:53:40;;;;;;;0.50;0.40;;;8.90;99.90;;;;;;5455656;26;20212;-85
2024/04/10 00:56:10;;;;;;;1.40;0.88;;;8.90;99.90;;;;;;5458966;26;20293;-83
2024/04/10 00:58:38;;;;;;;0.50;0.40;;;8.80;99.90;;;;;;5470454;26;20223;-83
2024/04/10 01:01:07;;;;;;;0.70;0.60;;;8.80;99.90;;;;;;5464029;26;20860;-84
2024/04/10 01:03:34;;;;;;;0.50;0.40;;;8.70;99.90;;;;;;5455479;26;20215;-85
2024/04/10 01:06:06;;;;;;;2.72;2.20;;;8.70;99.90;;;;;;5455821;26;20253;-85
2024/04/10 01:08:38;;;;;;;0.70;0.70;;;8.70;99.90;;;;;;5455993;26;20235;-85
2024/04/10 01:11:08;;;;;;;2.60;2.40;;;8.70;99.90;;;;;;5466546;26;20265;-82
2024/04/10 01:13:37;;;;;;;0.50;0.40;;;8.60;99.90;;;;;;5466930;26;20285;-83
2024/04/10 01:16:04;;;;;;;0.50;0.40;;;8.60;99.90;;;;;;5464118;26;20215;-83
2024/04/10 01:18:32;;;;;;;0.50;0.40;;;8.60;99.90;;;;;;5465653;26;20282;-83
2024/04/10 01:20:58;;;;;;;0.50;0.40;;;8.50;99.90;;;;;;5453326;26;20212;-83
2024/04/10 01:23:29;;;;;;;0.50;0.40;;;8.50;99.90;;;;;;5451723;26;20757;-83
2024/04/10 01:25:55;;;;;;;1.13;0.60;;;8.50;99.90;;;;;;5451108;26;20314;-83
2024/04/10 01:28:23;;;;;;;0.50;0.40;;;8.40;99.90;;;;;;5453301;26;20235;-82
2024/04/10 01:30:49;;;;;;;0.50;0.40;;;8.40;99.90;;;;;;5454854;26;20212;-83
2024/04/10 01:33:17;;;;;;;0.50;0.40;;;8.40;99.90;;;;;;5454936;26;20216;-83
2024/04/10 01:35:43;;;;;;;0.50;0.40;;;8.40;99.90;;;;;;5454666;26;20557;-83
2024/04/10 01:38:14;;;;;;;0.50;0.40;;;8.30;99.90;;;;;;5454860;26;20235;-83
2024/04/10 01:40:43;;;;;;;0.50;0.40;;;8.30;99.90;;;;;;5454803;26;20249;-83
2024/04/10 01:43:12;;;;;;;0.50;0.40;;;8.30;99.90;;;;;;5454392;26;20652;-84
2024/04/10 01:45:38;;;;;;;0.50;0.40;;;8.20;99.90;;;;;;5454558;26;20662;-84
2024/04/10 01:48:07;;;;;;;0.50;0.50;;;8.20;99.90;;;;;;5454978;26;20328;-86
2024/04/10 01:50:33;;;;;;;1.48;1.38;;;8.20;99.90;;;;;;5455092;26;20444;-85
2024/04/10 01:53:02;;;;;;;0.50;0.40;;;8.20;99.90;;;;;;5454036;26;20935;-84
2024/04/10 01:55:27;;;;;;;0.50;0.40;;;8.20;99.90;;;;;;5454241;26;20215;-83
2024/04/10 01:57:58;;;;;;;0.50;0.50;;;8.10;99.90;;;;;;5457181;26;20296;-84
2024/04/10 02:00:25;;;;;;;1.88;0.93;;;8.10;99.90;;;;;;5459750;26;20248;-84
2024/04/10 02:02:54;;;;;;;0.50;0.40;;;8.00;99.90;;;;;;5463807;26;20337;-83
2024/04/10 02:05:19;;;;;;;0.50;0.40;;;8.00;99.90;;;;;;5463333;26;20220;-85
2024/04/10 02:07:48;;;;;;;0.50;0.40;;;8.00;99.90;;;;;;5463003;26;20267;-85
2024/04/10 02:10:14;;;;;;;0.50;0.40;;;8.00;99.90;;;;;;5462744;26;20315;-85
2024/04/10 02:12:43;;;;;;;0.70;0.70;;;7.90;99.90;;;;;;5453890;26;20232;-84
2024/04/10 02:15:11;;;;;;;0.50;0.40;;;7.90;99.90;;;;;;5427628;26;20443;-85
2024/04/10 02:17:39;;;;;;;0.50;0.40;;;7.90;99.90;;;;;;5422200;26;20224;-85
2024/04/10 02:20:07;;;;;;;0.50;0.40;;;7.90;99.90;;;;;;5422633;26;20587;-85
2024/04/10 02:22:36;;;;;;;0.50;0.50;;;7.80;99.90;;;;;;5422298;26;20254;-84
2024/04/10 02:25:02;;;;;;;0.50;0.40;;;7.80;99.90;;;;;;5452862;26;20351;-85
2024/04/10 02:27:32;;;;;;;2.35;1.50;;;7.80;99.90;;;;;;5458397;26;20228;-85
2024/04/10 02:29:58;;;;;;;0.50;0.40;;;7.80;99.90;;;;;;5437057;26;20329;-85
2024/04/10 02:32:29;;;;;;;0.50;0.50;;;7.70;99.90;;;;;;5426743;26;20216;-85
2024/04/10 02:34:55;;;;;;;0.50;0.40;;;7.70;99.90;;;;;;5421838;26;20220;-85
2024/04/10 02:37:24;;;;;;;0.80;0.80;;;7.70;99.90;;;;;;5421856;26;20274;-85
2024/04/10 02:39:50;;;;;;;0.50;0.50;;;7.70;99.90;;;;;;5421015;26;20209;-85
2024/04/10 02:42:20;;;;;;;0.50;0.43;;;7.60;99.90;;;;;;5421992;26;20259;-85
2024/04/10 02:44:51;;;;;;;0.50;0.40;;;7.60;99.90;;;;;;5422047;26;20590;-85
2024/04/10 02:47:20;;;;;;;0.50;0.40;;;7.60;99.90;;;;;;5420050;26;20263;-85
2024/04/10 02:49:48;;;;;;;0.50;0.40;;;7.50;99.90;;;;;;5421565;26;20247;-85
2024/04/10 02:52:16;;;;;;;0.50;0.40;;;7.50;99.90;;;;;;5421743;26;20549;-84
2024/04/10 02:54:42;;;;;;;0.50;0.40;;;7.50;99.90;;;;;;5424888;26;20239;-84
2024/04/10 02:57:11;;;;;;;0.50;0.40;;;7.50;99.90;;;;;;5428034;26;20222;-84
2024/04/10 02:59:37;;;;;;;0.50;0.50;;;7.50;99.90;;;;;;5423268;26;20985;-84
2024/04/10 03:02:07;;;;;;;1.20;1.07;;;7.50;99.90;;;;;;5421827;26;20307;-85
2024/04/10 03:04:33;;;;;;;0.60;0.60;;;7.50;99.90;;;;;;5424724;26;20212;-84
2024/04/10 03:07:05;;;;;;;0.50;0.40;;;7.40;99.90;;;;;;5427608;26;20284;-84
2024/04/10 03:09:31;;;;;;;0.50;0.40;;;7.40;99.90;;;;;;5425859;26;20221;-83
2024/04/10 03:11:59;;;;;;;0.50;0.40;;;7.40;99.90;;;;;;5417833;26;20658;-84
2024/04/10 03:14:26;;;;;;;1.02;1.02;;;7.40;99.90;;;;;;5420449;26;20272;-84
2024/04/10 03:16:54;;;;;;;0.50;0.40;;;7.50;99.90;;;;;;5418734;26;20216;-83
2024/04/10 03:19:23;;;;;;;0.50;0.40;;;7.60;99.90;;;;;;5420079;26;20811;-84
2024/04/10 03:21:48;;;;;;;0.50;0.40;;;7.60;99.90;;;;;;5420852;26;20273;-85
2024/04/10 03:24:19;;;;;;;0.50;0.40;;;7.70;99.90;;;;;;5420425;26;20657;-84
2024/04/10 03:26:45;;;;;;;0.50;0.40;;;7.80;99.90;;;;;;5422135;26;20286;-83
2024/04/10 03:29:15;;;;;;;0.50;0.40;;;7.80;99.90;;;;;;5432640;26;20241;-83
2024/04/10 03:31:41;;;;;;;0.50;0.50;;;7.90;99.90;;;;;;5432072;26;20272;-84
2024/04/10 03:34:11;;;;;;;0.50;0.50;;;7.90;99.90;;;;;;5421082;26;21035;-85
2024/04/10 03:36:38;;;;;;;0.50;0.40;;;8.00;99.90;;;;;;5421063;26;20503;-84
2024/04/10 03:39:08;;;;;;;0.63;0.63;;;8.00;99.90;;;;;;5421039;26;20236;-84
2024/04/10 03:41:36;;;;;;;0.60;0.50;;;8.10;99.90;;;;;;5421263;26;20216;-84
2024/04/10 03:44:05;;;;;;;0.50;0.40;;;8.10;99.90;;;;;;5421199;26;20251;-85
2024/04/10 03:46:34;;;;;;;0.50;0.40;;;8.10;99.90;;;;;;5421009;26;20209;-83
2024/04/10 03:49:04;;;;;;;0.50;0.40;;;8.00;99.90;;;;;;5420979;26;20267;-85
2024/04/10 03:51:34;;;;;;;0.50;0.40;;;8.00;99.90;;;;;;5419413;26;20715;-84
2024/04/10 03:54:01;;;;;;;0.80;0.80;;;8.00;99.90;;;;;;5420274;26;20343;-85
2024/04/10 03:56:29;;;;;;;0.50;0.40;;;8.00;99.90;;;;;;5420669;26;20260;-85
2024/04/10 03:58:58;;;;;;;0.50;0.50;;;7.90;99.90;;;;;;5420785;26;20271;-84
2024/04/10 04:01:27;;;;;;;0.50;0.40;;;7.90;99.90;;;;;;5420747;26;20303;-84
2024/04/10 04:03:53;;;;;;;0.50;0.40;;;7.80;99.90;;;;;;5420539;26;20212;-84
2024/04/10 04:06:22;;;;;;;0.50;0.40;;;7.80;99.90;;;;;;5420316;26;20610;-84
2024/04/10 04:08:51;;;;;;;0.50;0.40;;;7.80;99.90;;;;;;5420411;26;20225;-85
2024/04/10 04:12:36;;;;;;;0.50;0.40;;;7.90;99.90;;;;;;5474813;25;20690;-84
2024/04/10 04:15:02;;;;;;;0.50;0.50;;;7.90;99.90;;;;;;5473211;26;20261;-84
2024/04/10 04:17:31;;;;;;;0.50;0.40;;;7.90;99.90;;;;;;5468269;26;20629;-83
2024/04/10 04:19:57;;;;;;;0.50;0.40;;;7.90;99.90;;;;;;5438554;26;20828;-84
2024/04/10 04:22:25;;;;;;;0.50;0.40;;;7.90;99.90;;;;;;5438348;26;20212;-83
2024/04/10 04:24:51;;;;;;;0.50;0.40;;;7.90;99.90;;;;;;5438624;26;20289;-83
2024/04/10 04:27:22;;;;;;;5.68;1.50;;;7.90;99.90;;;;;;5438809;26;20924;-84
2024/04/10 04:29:51;;;;;;;0.50;0.40;;;7.80;99.90;;;;;;5438317;26;20211;-83
2024/04/10 04:32:19;;;;;;;0.50;0.40;;;7.90;99.90;;;;;;5438500;26;20212;-84
2024/04/10 04:34:45;;;;;;;0.50;0.40;;;7.90;99.90;;;;;;5438073;26;20254;-84
2024/04/10 04:37:15;;;;;;;0.50;0.50;;;7.90;99.90;;;;;;5436509;26;20552;-85
2024/04/10 04:39:41;;;;;;;0.50;0.40;;;7.80;99.90;;;;;;5437938;26;20308;-83
2024/04/10 04:42:10;;;;;;;0.50;0.40;;;7.80;99.90;;;;;;5438237;26;20208;-84
2024/04/10 04:44:35;;;;;;;0.50;0.40;;;7.70;99.90;;;;;;5437092;26;20308;-84
2024/04/10 04:47:09;;;;;;;0.50;0.40;;;7.70;99.90;;;;;;5437078;26;20691;-84
2024/04/10 04:49:35;;;;;;;0.50;0.40;;;7.60;99.90;;;;;;5437420;26;20281;-84
2024/04/10 04:52:04;;;;;;;0.50;0.40;;;7.60;99.90;;;;;;5437175;26;20250;-84
2024/04/10 04:54:31;;;;;;;0.50;0.40;;;7.60;99.90;;;;;;5436593;26;20264;-82
2024/04/10 04:56:59;;;;;;;0.50;0.40;;;7.60;99.90;;;;;;5436795;26;20208;-84
2024/04/10 04:59:25;;;;;;;1.42;1.10;;;7.60;99.90;;;;;;5436899;26;20250;-83
2024/04/10 05:01:53;;;;;;;0.50;0.40;;;7.60;99.90;;;;;;5436509;26;20305;-83
2024/04/10 05:07:09;;;;;;;0.50;0.40;;;7.70;99.90;;;;;;5403547;26;20312;-82
2024/04/10 05:09:37;;;;;;;0.50;0.40;;;7.80;99.90;;;;;;5401452;26;20214;-83
2024/04/10 05:12:03;;;;;;;0.50;0.40;;;7.90;99.90;;;;;;5401197;26;20697;-82
2024/04/10 05:14:32;;;;;;;0.50;0.40;;;8.00;99.90;;;;;;5401060;26;20720;-83
2024/04/10 05:16:57;;;;;;;0.50;0.40;;;8.00;99.90;;;;;;5400367;26;20260;-83
2024/04/10 05:19:30;;;;;;;0.50;0.40;;;8.00;99.90;;;;;;5401122;26;20233;-83
2024/04/10 05:21:56;;;;;;;0.82;0.82;;;8.10;99.90;;;;;;5395097;26;20288;-83
2024/04/10 05:24:24;;;;;;;1.53;1.47;;;8.20;99.90;;;;;;5386060;26;20217;-84
2024/04/10 05:26:50;;;;;;;0.50;0.40;;;8.20;99.90;;;;;;5386817;26;20526;-85
2024/04/10 05:29:19;;;;;;;0.50;0.40;;;8.30;99.90;;;;;;5386125;26;20335;-84
2024/04/10 05:31:45;;;;;;;0.50;0.50;;;8.40;99.90;;;;;;5386477;26;20218;-84
2024/04/10 05:34:14;;;;;;;0.50;0.40;;;8.40;99.90;;;;;;5383517;26;20214;-85
2024/04/10 05:36:42;;;;;;;0.50;0.40;;;8.40;99.90;;;;;;5387040;26;20456;-85
2024/04/10 05:39:10;;;;;;;0.50;0.40;;;8.30;99.90;;;;;;5386547;26;20356;-84
2024/04/10 05:41:36;;;;;;;0.50;0.40;;;8.30;99.90;;;;;;5386254;26;20261;-84
2024/04/10 05:44:04;;;;;;;0.50;0.40;;;8.30;99.90;;;;;;5387020;26;20269;-85
2024/04/10 05:46:31;;;;;;;0.50;0.40;;;8.30;99.90;;;;;;5385526;26;20214;-82
2024/04/10 05:49:01;;;;;;;0.50;0.40;;;8.40;99.90;;;;;;5387204;26;20293;-85
2024/04/10 05:51:26;;;;;;;0.50;0.40;;;8.40;99.90;;;;;;5384520;26;20218;-84
2024/04/10 05:53:57;;;;;;;0.67;0.67;;;8.50;99.90;;;;;;5385767;26;20318;-84
2024/04/10 05:56:25;;;;;;;0.50;0.40;;;8.60;99.90;;;;;;5386368;26;20270;-84
2024/04/10 05:58:53;;;;;;;1.05;0.60;;;8.70;99.90;;;;;;5392803;26;20237;-84
2024/04/10 06:01:19;;;;;;;0.50;0.40;;;8.70;99.90;;;;;;5398387;26;20273;-82
2024/04/10 06:03:50;;;;;;;0.50;0.40;;;8.70;99.90;;;;;;5390973;26;20241;-84
2024/04/10 06:06:16;;;;;;;0.50;0.40;;;8.70;99.90;;;;;;5387559;26;20213;-84
2024/04/10 06:08:46;;;;;;;0.50;0.40;;;8.80;99.90;;;;;;5386737;26;20295;-84
2024/04/10 06:11:14;;;;;;;0.50;0.40;;;8.80;99.90;;;;;;5398938;26;20310;-84
2024/04/10 06:13:46;;;;;;;0.50;0.40;;;8.90;99.90;;;;;;5421647;26;20220;-84
2024/04/10 06:16:11;;;;;;;0.50;0.40;;;8.90;99.90;;;;;;5422266;26;20310;-85
2024/04/10 06:18:42;;;;;;;0.50;0.40;;;9.10;99.90;;;;;;5422337;26;20240;-85
2024/04/10 06:21:08;;;;;;;0.50;0.43;;;9.10;99.90;;;;;;5422635;26;20225;-85
2024/04/10 06:23:39;;;;;;;0.50;0.40;;;9.20;99.90;;;;;;5422349;26;20272;-84
2024/04/10 06:26:05;;;;;;;0.50;0.40;;;9.20;99.90;;;;;;5421698;26;20310;-83
2024/04/10 06:28:37;;;;;;;0.70;0.70;;;9.30;99.90;;;;;;5421152;26;20505;-83
2024/04/10 06:31:04;;;;;;;0.50;0.50;;;9.30;99.90;;;;;;5421003;26;20661;-84
2024/04/10 06:33:36;;;;;;;1.52;1.42;;;9.30;99.90;;;;;;5420160;26;20314;-84
2024/04/10 06:36:03;;;;;;;0.50;0.40;;;9.30;99.90;;;;;;5421151;26;20228;-84
2024/04/10 06:38:37;;;;;;;1.05;1.05;;;9.30;99.90;;;;;;5419874;26;20342;-85
2024/04/10 06:41:04;;;;;;;1.75;1.65;;;9.40;99.90;;;;;;5420330;26;20243;-84
2024/04/10 06:43:32;;;;;;;1.40;1.30;;;9.40;99.90;;;;;;5420490;26;20318;-83
2024/04/10 06:46:02;;;;;;;0.50;0.40;;;9.50;99.90;;;;;;5420146;26;20675;-84
2024/04/10 06:48:31;;;;;;;1.40;1.15;;;9.50;99.90;;;;;;5420475;26;20292;-82
2024/04/10 06:50:59;;;;;;;0.50;0.40;;;9.60;99.90;;;;;;5420174;26;20270;-83
2024/04/10 06:53:28;;;;;;;0.50;0.40;;;9.70;99.90;;;;;;5419892;26;20271;-84
2024/04/10 06:55:55;;;;;;;0.60;0.50;;;9.90;99.90;;;;;;5420499;26;20286;-82
2024/04/10 06:58:24;;;;;;;0.50;0.40;;;10.30;99.90;;;;;;5419363;26;20599;-83
2024/04/10 07:00:57;;;;;;;0.50;0.40;;;10.90;99.90;;;;;;5419625;26;20530;-82
2024/04/10 07:03:29;;;;;;;0.50;0.40;;;11.50;99.90;;;;;;5418937;26;20530;-83
2024/04/10 07:06:03;;;;;;;0.50;0.50;;;12.00;99.90;;;;;;5419428;26;20453;-83
2024/04/10 07:08:31;;;;;;;0.50;0.40;;;12.40;99.90;;;;;;5420019;26;20469;-83
2024/04/10 07:10:57;;;;;;;0.50;0.40;;;12.30;99.90;;;;;;5419200;26;20471;-83
2024/04/10 07:13:26;;;;;;;0.50;0.40;;;12.10;99.90;;;;;;5417706;26;20453;-83
2024/04/10 07:15:59;;;;;;;1.60;0.73;;;12.00;99.90;;;;;;5418270;26;20449;-82
2024/04/10 07:18:30;;;;;;;0.50;0.40;;;12.20;99.90;;;;;;5418286;26;20465;-84
2024/04/10 07:21:01;;;;;;;0.60;0.60;;;12.40;99.90;;;;;;5417712;26;20511;-83
2024/04/10 07:23:29;;;;;;;0.50;0.40;;;12.70;99.90;;;;;;5419778;26;20497;-84
2024/04/10 07:26:05;;;;;;;0.50;0.40;;;12.50;99.90;;;;;;5420132;26;20913;-82
2024/04/10 07:28:34;;;;;;;1.20;0.50;;;12.30;99.90;;;;;;5421858;26;20488;-83
2024/04/10 07:31:01;;;;;;;0.53;0.50;;;12.20;99.90;;;;;;5429343;26;20513;-83
2024/04/10 07:33:34;;;;;;;0.50;0.40;;;12.00;99.90;;;;;;5429856;26;20457;-84
2024/04/10 07:36:13;;;;;;;0.50;0.40;;;11.90;99.90;;;;;;5429970;26;20454;-83
2024/04/10 07:38:43;;;;;;;0.50;0.50;;;11.80;99.90;;;;;;5433853;26;20461;-82
2024/04/10 07:41:11;;;;;;;0.50;0.40;;;11.70;99.90;;;;;;5431547;26;20452;-82
2024/04/10 07:43:39;;;;;;;0.50;0.40;;;12.00;99.90;;;;;;5427995;26;20499;-83
2024/04/10 07:46:06;;;;;;;1.43;0.60;;;11.90;99.90;;;;;;5428257;26;20753;-83
2024/04/10 07:48:38;;;;;;;0.50;0.40;;;11.70;99.90;;;;;;5421707;26;20468;-84
2024/04/10 07:51:04;;;;;;;0.50;0.40;;;11.70;99.90;;;;;;5417326;26;20470;-83
2024/04/10 07:53:35;;;;;;;0.50;0.40;;;11.70;99.90;;;;;;5416875;26;20448;-83
2024/04/10 07:56:01;;;;;;;0.50;0.43;;;11.80;99.90;;;;;;5417055;26;20861;-83
2024/04/10 07:58:30;;;;;;;0.93;0.60;;;11.90;99.90;;;;;;5417854;26;20472;-83
2024/04/10 08:00:57;;;;;;;0.67;0.67;;;11.80;99.90;;;;;;5432958;26;20449;-83
2024/04/10 08:03:25;;;;;;;0.50;0.40;;;11.80;99.90;;;;;;5432688;26;20519;-84
2024/04/10 08:05:54;;;;;;;0.50;0.40;;;11.60;99.90;;;;;;5420853;26;20444;-84
2024/04/10 08:08:23;;;;;;;0.50;0.40;;;11.60;99.90;;;;;;5421440;26;20472;-84
2024/04/10 08:10:58;;;;;;;1.00;1.00;;;11.60;99.90;;;;;;5435143;26;20444;-82
2024/04/10 08:13:26;;;;;;;0.50;0.40;;;11.60;99.90;;;;;;5434983;26;20432;-82
2024/04/10 08:15:58;;;;;;;0.50;0.50;;;11.70;99.90;;;;;;5430240;26;20495;-84
2024/04/10 08:18:27;;;;;;;0.50;0.50;;;11.60;99.90;;;;;;5423398;26;20650;-85
2024/04/10 08:21:03;;;;;;;0.50;0.40;;;11.60;99.90;;;;;;5422375;26;20460;-83
2024/04/10 08:23:33;;;;;;;0.50;0.40;;;11.90;99.90;;;;;;5421795;26;20532;-84
2024/04/10 08:26:00;;;;;;;0.50;0.40;;;12.10;99.90;;;;;;5421077;26;20644;-84
2024/04/10 08:28:29;;;;;;;0.77;0.77;;;12.20;99.90;;;;;;5426109;26;21006;-84
2024/04/10 08:30:56;;;;;;;0.50;0.40;;;12.20;99.90;;;;;;5421014;26;20452;-84
2024/04/10 08:33:26;;;;;;;0.50;0.40;;;12.10;99.90;;;;;;5420096;26;20531;-84
2024/04/10 08:35:54;;;;;;;0.50;0.40;;;12.30;99.90;;;;;;5420410;26;20453;-85
2024/04/10 08:38:25;;;;;;;0.70;0.60;;;12.60;99.90;;;;;;5420958;26;20903;-83
2024/04/10 08:40:52;;;;;;;0.60;0.50;;;12.60;99.90;;;;;;5420933;26;20461;-82
2024/04/10 08:43:21;;;;;;;0.50;0.40;;;12.30;99.90;;;;;;5421323;26;20547;-83
2024/04/10 08:45:48;;;;;;;0.87;0.87;;;12.40;99.90;;;;;;5420469;26;20734;-85
2024/04/10 08:48:18;;;;;;;0.60;0.43;;;12.50;99.90;;;;;;5421364;26;21137;-82
2024/04/10 08:50:45;;;;;;;0.60;0.60;;;12.70;99.90;;;;;;5421654;26;20450;-84
2024/04/10 08:53:17;;;;;;;0.50;0.40;;;12.90;99.90;;;;;;5410327;26;20544;-87
2024/04/10 08:55:46;;;;;;;0.70;0.50;;;13.20;99.90;;;;;;5391223;26;20498;-85
2024/04/10 08:58:15;;;;;;;0.50;0.40;;;13.20;99.90;;;;;;5423260;26;20507;-85
2024/04/10 09:00:43;;;;;;;0.50;0.40;;;13.30;99.90;;;;;;5412946;26;20561;-84
2024/04/10 09:03:12;;;;;;;0.50;0.50;;;13.80;99.90;;;;;;5388866;26;20912;-83
2024/04/10 09:05:38;;;;;;;6.90;0.97;;;14.50;99.90;;;;;;5389748;26;20853;-85
2024/04/10 09:08:08;;;;;;;0.50;0.50;;;14.50;99.90;;;;;;5388900;26;20464;-86
2024/04/10 09:10:34;;;;;;;0.50;0.30;;;15.20;99.90;;;;;;5390312;26;20462;-83
2024/04/10 09:13:10;;;;;;;0.50;0.40;;;16.60;99.90;;;;;;5388674;26;20550;-84
2024/04/10 09:15:36;;;;;;;0.50;0.40;;;17.80;99.90;;;;;;5387629;26;20491;-81
2024/04/10 09:18:06;;;;;;;0.50;0.40;;;18.80;99.90;;;;;;5388577;26;21065;-80
2024/04/10 09:20:32;;;;;;;0.83;0.80;;;18.70;99.90;;;;;;5388113;26;20529;-81
2024/04/10 09:23:03;;;;;;;0.50;0.33;;;18.50;99.90;;;;;;5388735;26;20450;-86
2024/04/10 09:25:30;;;;;;;0.50;0.40;;;18.80;99.90;;;;;;5391452;26;20504;-84
2024/04/10 09:28:03;;;;;;;0.50;0.37;;;19.60;99.90;;;;;;5389732;26;20511;-86
2024/04/10 09:30:32;;;;;;;0.50;0.40;;;20.00;98.20;;;;;;5389896;26;20496;-83
2024/04/10 09:33:02;;;;;;;0.50;0.30;;;19.40;96.10;;;;;;5390085;26;20495;-86
2024/04/10 09:35:29;;;;;;;2.93;2.43;;;18.70;97.60;;;;;;5390630;26;20452;-82
2024/04/10 09:38:01;;;;;;;0.60;0.50;;;17.80;98.40;;;;;;5395334;26;20467;-82
2024/04/10 09:40:28;;;;;;;0.50;0.40;;;18.10;99.90;;;;;;5401331;26;20536;-82
2024/04/10 09:43:03;;;;;;;0.50;0.30;;;18.80;99.80;;;;;;5399363;26;20444;-83
2024/04/10 09:45:35;;;;;;;0.50;0.30;;;20.00;98.40;;;;;;5398790;26;20580;-83
2024/04/10 09:48:08;;;;;;;5.60;2.77;;;20.10;94.40;;;;;;5390341;26;20528;-82
2024/04/10 09:50:36;;;;;;;0.50;0.50;;;19.30;94.50;;;;;;5388328;26;21062;-82
2024/04/10 09:53:06;;;;;;;0.50;0.33;;;18.00;95.20;;;;;;5388246;26;20461;-83
2024/04/10 09:55:33;;;;;;;0.50;0.40;;;16.40;96.70;;;;;;5388633;26;20520;-82
2024/04/10 09:58:03;;;;;;;0.50;0.50;;;15.60;99.90;;;;;;5388751;26;20519;-83
2024/04/10 10:00:29;;;;;;;0.50;0.50;;;14.80;99.90;;;;;;5387585;26;20543;-83
2024/04/10 10:03:11;;;;;;;0.50;0.40;;;14.40;99.90;;;;;;5388558;26;20455;-84
2024/04/10 10:05:38;;;;;;;0.50;0.40;;;14.20;99.90;;;;;;5389353;26;20451;-86
2024/04/10 10:08:08;;;;;;;0.50;0.40;;;14.50;99.90;;;;;;5388892;26;20527;-83
2024/04/10 10:10:45;;;;;;;0.60;0.50;;;16.10;99.90;;;;;;5388519;26;21118;-83
2024/04/10 10:13:14;;;;;;;0.50;0.40;;;16.60;99.90;;;;;;5388733;26;20447;-82
2024/04/10 10:15:40;;;;;;;0.50;0.40;;;15.70;99.90;;;;;;5387879;26;20456;-84
2024/04/10 10:18:11;;;;;;;0.50;0.40;;;15.30;99.90;;;;;;5387446;26;20889;-83
2024/04/10 10:20:37;;;;;;;0.50;0.40;;;15.00;99.90;;;;;;5387533;26;20468;-83
2024/04/10 10:23:06;;;;;;;0.70;0.50;;;15.10;99.90;;;;;;5386918;26;20452;-82
2024/04/10 10:25:34;;;;;;;1.60;1.07;;;15.40;99.90;;;;;;5387076;26;20327;-84
2024/04/10 10:28:06;;;;;;;0.50;0.40;;;16.60;99.90;;;;;;5388416;26;20456;-83
2024/04/10 10:30:32;;;;;;;0.50;0.40;;;17.90;99.90;;;;;;5387234;26;20559;-83
2024/04/10 10:33:04;;;;;;;0.50;0.40;;;19.40;99.00;;;;;;5387384;26;20736;-84
2024/04/10 10:35:33;;;;;;;0.60;0.50;;;20.80;92.40;;;;;;5387309;26;20547;-84
2024/04/10 10:38:03;;;;;;;0.60;0.60;;;19.80;90.50;;;;;;5387349;26;20463;-83
2024/04/10 10:40:29;;;;;;;0.50;0.40;;;18.40;90.50;;;;;;5388595;26;20567;-84
2024/04/10 10:43:05;;;;;;;0.50;0.40;;;17.20;92.40;;;;;;5387338;26;20465;-84
2024/04/10 10:45:31;;;;;;;0.50;0.40;;;16.60;95.20;;;;;;5388065;26;20505;-83
2024/04/10 10:47:59;;;;;;;0.50;0.30;;;16.60;95.10;;;;;;5388297;26;20477;-86
2024/04/10 10:50:25;;;;;;;0.97;0.77;;;17.10;96.30;;;;;;5388555;26;20502;-84
2024/04/10 10:52:58;;;;;;;0.50;0.30;;;18.20;94.10;;;;;;5387334;26;20916;-84
2024/04/10 10:55:24;;;;;;;0.50;0.40;;;18.60;90.90;;;;;;5386248;26;20783;-79
2024/04/10 10:58:03;;;;;;;0.50;0.40;;;18.70;91.60;;;;;;5386983;26;20531;-82
2024/04/10 11:00:30;;;;;;;0.50;0.30;;;18.30;87.90;;;;;;5386924;26;20450;-84
2024/04/10 11:02:59;;;;;;;0.50;0.40;;;17.80;90.50;;;;;;5386325;26;20454;-85
2024/04/10 11:05:25;;;;;;;0.50;0.30;;;17.70;91.50;;;;;;5387647;26;20972;-87
2024/04/10 11:08:02;;;;;;;0.50;0.40;;;17.30;92.60;;;;;;5387458;26;20474;-85
2024/04/10 11:10:28;;;;;;;0.50;0.40;;;17.00;92.80;;;;;;5388218;26;20453;-85
2024/04/10 11:13:04;;;;;;;0.50;0.40;;;16.10;93.00;;;;;;5385211;26;20535;-83
2024/04/10 11:15:39;;;;;;;0.50;0.40;;;15.90;94.40;;;;;;5385943;26;20883;-82
2024/04/10 11:18:07;;;;;;;0.50;0.30;;;15.80;94.90;;;;;;5386538;26;20474;-84
2024/04/10 11:20:34;;;;;;;0.80;0.70;;;15.70;95.50;;;;;;5388033;26;20538;-85
2024/04/10 11:23:07;;;;;;;0.60;0.60;;;15.70;93.40;;;;;;5390314;26;20530;-83
2024/04/10 11:25:33;;;;;;;0.50;0.40;;;15.90;94.10;;;;;;5389193;26;20440;-83
2024/04/10 11:28:03;;;;;;;0.50;0.40;;;16.60;93.20;;;;;;5392428;26;20464;-82
2024/04/10 11:30:30;;;;;;;0.50;0.40;;;16.70;90.90;;;;;;5395688;26;20441;-84
2024/04/10 11:32:59;;;;;;;0.50;0.40;;;16.50;92.20;;;;;;5393585;26;20461;-82
2024/04/10 11:35:27;;;;;;;0.50;0.40;;;16.30;92.10;;;;;;5389807;26;20448;-82
2024/04/10 11:37:57;;;;;;;1.53;0.60;;;16.30;93.00;;;;;;5388365;26;20478;-82
2024/04/10 11:40:25;;;;;;;0.50;0.40;;;15.80;91.50;;;;;;5387967;26;20525;-82
2024/04/10 11:42:54;;;;;;;0.63;0.63;;;15.50;93.10;;;;;;5388766;26;20452;-82
2024/04/10 11:45:20;;;;;;;0.50;0.40;;;16.30;92.40;;;;;;5388783;26;20453;-83
2024/04/10 11:47:48;;;;;;;0.50;0.40;;;16.60;90.30;;;;;;5389123;26;20474;-82
2024/04/10 11:50:15;;;;;;;0.50;0.40;;;16.60;90.60;;;;;;5392104;26;20269;-86
2024/04/10 11:52:45;;;;;;;0.50;0.30;;;16.60;90.20;;;;;;5390667;26;20448;-84
2024/04/10 11:55:12;;;;;;;0.50;0.40;;;16.30;91.20;;;;;;5389648;26;20436;-85
2024/04/10 11:57:45;;;;;;;0.50;0.40;;;15.80;91.40;;;;;;5391227;26;20525;-82
2024/04/10 12:00:11;;;;;;;0.53;0.43;;;15.60;90.30;;;;;;5390490;26;20452;-82
2024/04/10 12:02:40;;;;;;;0.60;0.50;;;16.10;91.20;;;;;;5390202;26;20541;-80
2024/04/10 12:05:06;;;;;;;1.97;1.27;;;17.80;90.20;;;;;;5385461;26;20456;-81
2024/04/10 12:07:35;;;;;;;0.50;0.40;;;19.40;87.10;;;;;;5384393;26;20466;-81
2024/04/10 12:10:01;;;;;;;1.23;1.07;;;19.50;87.00;;;;;;5387059;26;20466;-82
2024/04/10 12:12:31;;;;;;;0.50;0.40;;;18.80;83.30;;;;;;5386387;26;20455;-81
2024/04/10 12:15:00;;;;;;;1.60;0.93;;;17.70;84.20;;;;;;5384731;26;20834;-80
2024/04/10 12:17:29;;;;;;;0.50;0.30;;;18.30;91.20;;;;;;5387260;26;20483;-81
2024/04/10 12:19:55;;;;;;;0.50;0.30;;;19.40;89.00;;;;;;5385507;26;20489;-81
2024/04/10 12:22:23;;;;;;;0.50;0.40;;;19.80;82.60;;;;;;5385332;26;20965;-81
2024/04/10 12:24:49;;;;;;;0.50;0.50;;;20.50;85.90;;;;;;5385099;26;20229;-84
2024/04/10 12:27:17;;;;;;;0.50;0.50;;;21.90;77.60;;;;;;5383409;26;20458;-84
2024/04/10 12:29:44;;;;;;;0.50;0.40;;;22.30;74.40;;;;;;5381523;26;20316;-80
2024/04/10 12:32:16;;;;;;;0.50;0.30;;;23.40;70.50;;;;;;5382866;26;20452;-83
2024/04/10 12:34:41;;;;;;;0.50;0.30;;;22.90;64.50;;;;;;5385479;26;20453;-83
2024/04/10 12:39:55;;;;;;;0.50;0.30;;;21.00;70.90;;;;;;5386052;26;20492;-83
2024/04/10 12:42:23;;;;;;;0.83;0.83;;;21.20;70.30;;;;;;5384306;26;20543;-82
2024/04/10 12:44:52;;;;;;;0.50;0.37;;;21.40;69.70;;;;;;5383669;26;20825;-81
2024/04/10 12:47:20;;;;;;;0.50;0.30;;;22.60;69.80;;;;;;5389369;26;20441;-82
2024/04/10 12:49:48;;;;;;;0.50;0.40;;;23.20;66.30;;;;;;5401247;26;20504;-80
2024/04/10 12:52:17;;;;;;;0.50;0.40;;;24.00;64.50;;;;;;5392279;26;20443;-80
2024/04/10 12:54:43;;;;;;;6.53;5.93;;;23.70;62.80;;;;;;5392013;26;20467;-81
2024/04/10 12:57:13;;;;;;;0.50;0.40;;;23.10;64.20;;;;;;5390358;26;20446;-82
2024/04/10 12:59:39;;;;;;;0.50;0.40;;;22.10;66.10;;;;;;5386444;26;20989;-81
2024/04/10 13:02:07;;;;;;;0.50;0.40;;;21.30;66.70;;;;;;5386312;26;20511;-82
2024/04/10 13:04:40;;;;;;;0.50;0.40;;;21.90;66.50;;;;;;5387289;26;20211;-82
2024/04/10 13:07:08;;;;;;;0.50;0.40;;;23.00;65.40;;;;;;5386570;26;20498;-81